sensor_id;sensor_type;location;lat;lon;timestamp;pressure;altitude;pressure_sealevel;temperature;humidity
69153;BME280;56261;51.580;4.578;2023-03-21T00:01:51;101765.34;;;9.11;100.00
69153;BME280;56261;51.580;4.578;2023-03-21T00:04:17;101763.22;;;9.15;100.00
69153;BME280;56261;51.580;4.578;2023-03-21T00:06:42;101767.88;;;9.23;100.00
69153;BME280;56261;51.580;4.578;2023-03-21T00:09:08;101765.22;;;9.23;100.00
69153;BME280;56261;51.580;4.578;2023-03-21T00:11:33;101761.28;;;9.27;100.00
69153;BME280;56261;51.580;4.578;2023-03-21T00:13:59;101763.09;;;9.26;100.00
69153;BME280;56261;51.580;4.578;2023-03-21T00:16:27;101763.66;;;9.20;100.00
69153;BME280;56261;51.580;4.578;2023-03-21T00:18:55;101758.06;;;9.23;100.00
69153;BME280;56261;51.580;4.578;2023-03-21T00:21:22;101754.81;;;9.20;100.00
69153;BME280;56261;51.580;4.578;2023-03-21T00:23:57;101753.44;;;9.16;100.00
69153;BME280;56261;51.580;4.578;2023-03-21T00:26:22;101751.06;;;9.22;100.00
69153;BME280;56261;51.580;4.578;2023-03-21T00:28:48;101754.56;;;9.23;100.00
69153;BME280;56261;51.580;4.578;2023-03-21T00:31:14;101748.81;;;9.18;100.00
69153;BME280;56261;51.580;4.578;2023-03-21T00:33:39;101746.44;;;9.24;100.00
69153;BME280;56261;51.580;4.578;2023-03-21T00:36:06;101735.34;;;9.19;100.00
69153;BME280;56261;51.580;4.578;2023-03-21T00:38:33;101742.78;;;9.16;100.00
69153;BME280;56261;51.580;4.578;2023-03-21T00:40:59;101733.09;;;9.14;100.00
69153;BME280;56261;51.580;4.578;2023-03-21T00:43:24;101732.44;;;9.22;100.00
69153;BME280;56261;51.580;4.578;2023-03-21T00:45:55;101731.97;;;9.17;100.00
69153;BME280;56261;51.580;4.578;2023-03-21T00:48:21;101726.41;;;9.20;100.00
69153;BME280;56261;51.580;4.578;2023-03-21T00:50:46;101725.69;;;9.28;100.00
69153;BME280;56261;51.580;4.578;2023-03-21T00:53:13;101722.75;;;9.21;100.00
69153;BME280;56261;51.580;4.578;2023-03-21T00:55:38;101713.91;;;9.30;100.00
69153;BME280;56261;51.580;4.578;2023-03-21T00:58:04;101724.16;;;9.25;100.00
69153;BME280;56261;51.580;4.578;2023-03-21T01:00:31;101706.94;;;9.29;100.00
69153;BME280;56261;51.580;4.578;2023-03-21T01:03:01;101704.97;;;9.31;100.00
69153;BME280;56261;51.580;4.578;2023-03-21T01:05:32;101702.72;;;9.37;100.00
69153;BME280;56261;51.580;4.578;2023-03-21T01:08:18;101691.50;;;9.43;100.00
69153;BME280;56261;51.580;4.578;2023-03-21T01:10:45;101687.84;;;9.44;100.00
69153;BME280;56261;51.580;4.578;2023-03-21T01:13:13;101684.91;;;9.37;100.00
69153;BME280;56261;51.580;4.578;2023-03-21T01:15:52;101680.31;;;9.49;100.00
69153;BME280;56261;51.580;4.578;2023-03-21T01:18:20;101684.06;;;9.56;100.00
69153;BME280;56261;51.580;4.578;2023-03-21T01:20:47;101677.34;;;9.52;100.00
69153;BME280;56261;51.580;4.578;2023-03-21T01:23:14;101668.94;;;9.56;100.00
69153;BME280;56261;51.580;4.578;2023-03-21T01:25:40;101671.56;;;9.66;100.00
69153;BME280;56261;51.580;4.578;2023-03-21T01:28:06;101678.59;;;9.57;100.00
69153;BME280;56261;51.580;4.578;2023-03-21T01:30:31;101668.63;;;9.60;100.00
69153;BME280;56261;51.580;4.578;2023-03-21T01:32:57;101663.47;;;9.58;100.00
69153;BME280;56261;51.580;4.578;2023-03-21T01:35:22;101668.94;;;9.56;100.00
69153;BME280;56261;51.580;4.578;2023-03-21T01:37:48;101660.09;;;9.56;100.00
69153;BME280;56261;51.580;4.578;2023-03-21T01:40:20;101665.44;;;9.56;100.00
69153;BME280;56261;51.580;4.578;2023-03-21T01:42:46;101656.84;;;9.62;100.00
69153;BME280;56261;51.580;4.578;2023-03-21T01:48:16;101648.63;;;9.55;100.00
69153;BME280;56261;51.580;4.578;2023-03-21T01:50:42;101655.47;;;9.48;100.00
69153;BME280;56261;51.580;4.578;2023-03-21T01:53:08;101653.50;;;9.50;100.00
69153;BME280;56261;51.580;4.578;2023-03-21T01:55:34;101643.84;;;9.49;100.00
69153;BME280;56261;51.580;4.578;2023-03-21T01:58:02;101647.50;;;9.39;100.00
69153;BME280;56261;51.580;4.578;2023-03-21T02:00:29;101644.00;;;9.48;100.00
69153;BME280;56261;51.580;4.578;2023-03-21T02:02:56;101642.31;;;9.47;100.00
69153;BME280;56261;51.580;4.578;2023-03-21T02:05:59;101635.59;;;9.43;100.00
69153;BME280;56261;51.580;4.578;2023-03-21T02:08:26;101640.50;;;9.47;100.00
69153;BME280;56261;51.580;4.578;2023-03-21T02:10:52;101639.94;;;9.44;100.00
69153;BME280;56261;51.580;4.578;2023-03-21T02:13:18;101636.72;;;9.40;100.00
69153;BME280;56261;51.580;4.578;2023-03-21T02:15:56;101625.91;;;9.42;100.00
69153;BME280;56261;51.580;4.578;2023-03-21T02:18:37;101623.56;;;9.39;100.00
69153;BME280;56261;51.580;4.578;2023-03-21T02:40:09;101595.97;;;9.30;100.00
69153;BME280;56261;51.580;4.578;2023-03-21T02:42:43;101597.91;;;9.38;100.00
69153;BME280;56261;51.580;4.578;2023-03-21T02:45:18;101594.28;;;9.29;100.00
69153;BME280;56261;51.580;4.578;2023-03-21T02:47:50;101589.38;;;9.34;100.00
69153;BME280;56261;51.580;4.578;2023-03-21T02:50:23;101587.84;;;9.31;100.00
69153;BME280;56261;51.580;4.578;2023-03-21T02:52:51;101598.75;;;9.28;100.00
69153;BME280;56261;51.580;4.578;2023-03-21T02:55:24;101595.97;;;9.30;100.00
69153;BME280;56261;51.580;4.578;2023-03-21T02:57:51;101601.28;;;9.30;100.00
69153;BME280;56261;51.580;4.578;2023-03-21T03:00:20;101593.44;;;9.38;100.00
69153;BME280;56261;51.580;4.578;2023-03-21T03:02:47;101596.66;;;9.32;100.00
69153;BME280;56261;51.580;4.578;2023-03-21T03:05:19;101595.13;;;9.29;100.00
69153;BME280;56261;51.580;4.578;2023-03-21T03:18:59;101591.34;;;9.32;100.00
69153;BME280;56261;51.580;4.578;2023-03-21T03:24:01;101582.50;;;9.31;100.00
69153;BME280;56261;51.580;4.578;2023-03-21T03:26:33;101580.56;;;9.33;100.00
69153;BME280;56261;51.580;4.578;2023-03-21T03:29:08;101581.81;;;9.29;100.00
69153;BME280;56261;51.580;4.578;2023-03-21T03:31:39;101573.09;;;9.37;100.00
69153;BME280;56261;51.580;4.578;2023-03-21T03:34:34;101573.41;;;9.34;100.00
69153;BME280;56261;51.580;4.578;2023-03-21T03:37:04;101566.69;;;9.30;100.00
69153;BME280;56261;51.580;4.578;2023-03-21T03:39:39;101574.22;;;9.34;100.00
69153;BME280;56261;51.580;4.578;2023-03-21T03:42:30;101567.94;;;9.35;100.00
69153;BME280;56261;51.580;4.578;2023-03-21T03:44:59;101566.25;;;9.34;100.00
69153;BME280;56261;51.580;4.578;2023-03-21T03:50:27;101563.44;;;9.36;100.00
69153;BME280;56261;51.580;4.578;2023-03-21T03:52:59;101550.00;;;9.28;100.00
69153;BME280;56261;51.580;4.578;2023-03-21T03:55:27;101561.91;;;9.24;100.00
69153;BME280;56261;51.580;4.578;2023-03-21T03:57:58;101554.75;;;9.34;100.00
69153;BME280;56261;51.580;4.578;2023-03-21T04:00:24;101554.34;;;9.39;100.00
69153;BME280;56261;51.580;4.578;2023-03-21T04:02:52;101550.97;;;9.37;100.00
69153;BME280;56261;51.580;4.578;2023-03-21T04:05:18;101557.44;;;9.34;100.00
69153;BME280;56261;51.580;4.578;2023-03-21T04:07:46;101557.03;;;9.29;100.00
69153;BME280;56261;51.580;4.578;2023-03-21T04:10:13;101548.75;;;9.32;100.00
69153;BME280;56261;51.580;4.578;2023-03-21T04:12:39;101549.13;;;9.37;100.00
69153;BME280;56261;51.580;4.578;2023-03-21T04:15:05;101549.69;;;9.41;100.00
69153;BME280;56261;51.580;4.578;2023-03-21T04:17:31;101539.31;;;9.38;100.00
69153;BME280;56261;51.580;4.578;2023-03-21T04:19:57;101543.97;;;9.35;100.00
69153;BME280;56261;51.580;4.578;2023-03-21T04:22:22;101542.84;;;9.38;100.00
69153;BME280;56261;51.580;4.578;2023-03-21T04:24:48;101546.78;;;9.34;100.00
69153;BME280;56261;51.580;4.578;2023-03-21T04:27:14;101536.38;;;9.41;100.00
69153;BME280;56261;51.580;4.578;2023-03-21T04:29:40;101536.13;;;9.34;100.00
69153;BME280;56261;51.580;4.578;2023-03-21T04:32:06;101535.84;;;9.37;100.00
69153;BME280;56261;51.580;4.578;2023-03-21T04:34:41;101526.19;;;9.36;100.00
69153;BME280;56261;51.580;4.578;2023-03-21T04:37:08;101530.25;;;9.30;100.00
69153;BME280;56261;51.580;4.578;2023-03-21T04:39:36;101527.59;;;9.30;100.00
69153;BME280;56261;51.580;4.578;2023-03-21T04:42:02;101521.03;;;9.25;100.00
69153;BME280;56261;51.580;4.578;2023-03-21T04:44:28;101515.13;;;9.21;100.00
69153;BME280;56261;51.580;4.578;2023-03-21T04:46:54;101524.75;;;9.42;100.00
69153;BME280;56261;51.580;4.578;2023-03-21T04:49:20;101517.50;;;9.34;100.00
69153;BME280;56261;51.580;4.578;2023-03-21T04:51:45;101522.53;;;9.37;100.00
69153;BME280;56261;51.580;4.578;2023-03-21T04:54:11;101509.66;;;9.32;100.00
69153;BME280;56261;51.580;4.578;2023-03-21T04:56:39;101511.59;;;9.40;100.00
69153;BME280;56261;51.580;4.578;2023-03-21T04:59:15;101505.59;;;9.28;100.00
69153;BME280;56261;51.580;4.578;2023-03-21T05:01:41;101507.94;;;9.41;100.00
69153;BME280;56261;51.580;4.578;2023-03-21T05:04:08;101503.19;;;9.35;100.00
69153;BME280;56261;51.580;4.578;2023-03-21T05:06:34;101506.44;;;9.29;100.00
69153;BME280;56261;51.580;4.578;2023-03-21T05:09:01;101506.72;;;9.35;100.00
69153;BME280;56261;51.580;4.578;2023-03-21T05:11:30;101504.31;;;9.42;100.00
69153;BME280;56261;51.580;4.578;2023-03-21T05:13:59;101510.34;;;9.34;100.00
69153;BME280;56261;51.580;4.578;2023-03-21T05:16:25;101510.34;;;9.34;100.00
69153;BME280;56261;51.580;4.578;2023-03-21T05:18:57;101498.34;;;9.21;100.00
69153;BME280;56261;51.580;4.578;2023-03-21T05:21:32;101501.22;;;9.37;100.00
69153;BME280;56261;51.580;4.578;2023-03-21T05:24:06;101514.00;;;9.33;100.00
69153;BME280;56261;51.580;4.578;2023-03-21T05:26:39;101509.06;;;9.39;100.00
69153;BME280;56261;51.580;4.578;2023-03-21T05:29:05;101514.13;;;9.32;100.00
69153;BME280;56261;51.580;4.578;2023-03-21T05:31:31;101508.81;;;9.32;100.00
69153;BME280;56261;51.580;4.578;2023-03-21T05:33:56;101515.97;;;9.22;100.00
69153;BME280;56261;51.580;4.578;2023-03-21T05:36:22;101513.00;;;9.34;100.00
69153;BME280;56261;51.580;4.578;2023-03-21T05:38:47;101508.50;;;9.45;100.00
69153;BME280;56261;51.580;4.578;2023-03-21T05:41:14;101512.13;;;9.44;100.00
69153;BME280;56261;51.580;4.578;2023-03-21T05:43:40;101513.81;;;9.45;100.00
69153;BME280;56261;51.580;4.578;2023-03-21T05:46:06;101502.91;;;9.38;100.00
69153;BME280;56261;51.580;4.578;2023-03-21T05:48:32;101514.34;;;9.48;100.00
69153;BME280;56261;51.580;4.578;2023-03-21T05:50:58;101512.81;;;9.46;100.00
69153;BME280;56261;51.580;4.578;2023-03-21T05:53:24;101509.91;;;9.39;100.00
69153;BME280;56261;51.580;4.578;2023-03-21T05:55:49;101509.88;;;9.49;100.00
69153;BME280;56261;51.580;4.578;2023-03-21T05:58:15;101506.66;;;9.45;100.00
69153;BME280;56261;51.580;4.578;2023-03-21T06:00:40;101513.97;;;9.43;100.00
69153;BME280;56261;51.580;4.578;2023-03-21T06:03:05;101513.09;;;9.52;100.00
69153;BME280;56261;51.580;4.578;2023-03-21T06:05:31;101505.97;;;9.43;100.00
69153;BME280;56261;51.580;4.578;2023-03-21T06:07:56;101509.63;;;9.42;100.00
69153;BME280;56261;51.580;4.578;2023-03-21T06:10:22;101510.97;;;9.56;100.00
69153;BME280;56261;51.580;4.578;2023-03-21T06:12:47;101520.41;;;9.41;100.00
69153;BME280;56261;51.580;4.578;2023-03-21T06:15:13;101526.56;;;9.41;100.00
69153;BME280;56261;51.580;4.578;2023-03-21T06:17:38;101525.44;;;9.44;100.00
69153;BME280;56261;51.580;4.578;2023-03-21T06:20:05;101531.94;;;9.31;100.00
69153;BME280;56261;51.580;4.578;2023-03-21T06:22:32;101534.88;;;9.38;100.00
69153;BME280;56261;51.580;4.578;2023-03-21T06:24:57;101540.63;;;9.24;100.00
69153;BME280;56261;51.580;4.578;2023-03-21T06:27:22;101535.16;;;9.25;100.00
69153;BME280;56261;51.580;4.578;2023-03-21T06:29:48;101533.47;;;9.34;100.00
69153;BME280;56261;51.580;4.578;2023-03-21T06:32:14;101537.13;;;9.23;100.00
69153;BME280;56261;51.580;4.578;2023-03-21T06:34:40;101535.47;;;9.12;100.00
69153;BME280;56261;51.580;4.578;2023-03-21T06:37:06;101534.47;;;9.23;100.00
69153;BME280;56261;51.580;4.578;2023-03-21T06:39:31;101523.16;;;9.11;100.00
69153;BME280;56261;51.580;4.578;2023-03-21T06:41:57;101520.63;;;9.10;100.00
69153;BME280;56261;51.580;4.578;2023-03-21T06:44:23;101525.53;;;9.14;100.00
69153;BME280;56261;51.580;4.578;2023-03-21T06:46:49;101525.94;;;9.10;100.00
69153;BME280;56261;51.580;4.578;2023-03-21T06:49:15;101525.69;;;9.03;100.00
69153;BME280;56261;51.580;4.578;2023-03-21T06:51:40;101523.84;;;9.04;100.00
69153;BME280;56261;51.580;4.578;2023-03-21T06:54:05;101515.72;;;9.15;100.00
69153;BME280;56261;51.580;4.578;2023-03-21T06:56:31;101509.41;;;9.16;100.00
69153;BME280;56261;51.580;4.578;2023-03-21T06:58:56;101514.91;;;9.05;100.00
69153;BME280;56261;51.580;4.578;2023-03-21T07:01:23;101507.47;;;9.18;100.00
69153;BME280;56261;51.580;4.578;2023-03-21T07:03:48;101505.38;;;9.12;100.00
69153;BME280;56261;51.580;4.578;2023-03-21T07:06:14;101496.66;;;9.20;100.00
69153;BME280;56261;51.580;4.578;2023-03-21T07:08:41;101499.88;;;9.23;100.00
69153;BME280;56261;51.580;4.578;2023-03-21T07:11:06;101491.16;;;9.31;100.00
69153;BME280;56261;51.580;4.578;2023-03-21T07:13:32;101499.81;;;9.33;100.00
69153;BME280;56261;51.580;4.578;2023-03-21T07:15:58;101500.44;;;9.27;100.00
69153;BME280;56261;51.580;4.578;2023-03-21T07:18:24;101495.38;;;9.33;100.00
69153;BME280;56261;51.580;4.578;2023-03-21T07:20:50;101496.66;;;9.20;100.00
69153;BME280;56261;51.580;4.578;2023-03-21T07:23:17;101498.47;;;9.29;100.00
69153;BME280;56261;51.580;4.578;2023-03-21T07:25:44;101496.78;;;9.28;100.00
69153;BME280;56261;51.580;4.578;2023-03-21T07:28:11;101498.47;;;9.29;100.00
69153;BME280;56261;51.580;4.578;2023-03-21T07:30:36;101492.00;;;9.31;100.00
69153;BME280;56261;51.580;4.578;2023-03-21T07:33:02;101487.38;;;9.33;100.00
69153;BME280;56261;51.580;4.578;2023-03-21T07:35:27;101481.88;;;9.35;100.00
69153;BME280;56261;51.580;4.578;2023-03-21T07:37:53;101475.72;;;9.34;100.00
69153;BME280;56261;51.580;4.578;2023-03-21T07:40:18;101475.16;;;9.41;100.00
69153;BME280;56261;51.580;4.578;2023-03-21T07:42:44;101467.41;;;9.47;100.00
69153;BME280;56261;51.580;4.578;2023-03-21T07:45:10;101471.31;;;9.53;100.00
69153;BME280;56261;51.580;4.578;2023-03-21T07:47:36;101472.88;;;9.55;100.00
69153;BME280;56261;51.580;4.578;2023-03-21T07:50:02;101470.03;;;9.57;100.00
69153;BME280;56261;51.580;4.578;2023-03-21T07:52:28;101466.91;;;9.62;100.00
69153;BME280;56261;51.580;4.578;2023-03-21T07:54:54;101466.66;;;9.55;100.00
69153;BME280;56261;51.580;4.578;2023-03-21T07:57:19;101461.69;;;9.70;100.00
69153;BME280;56261;51.580;4.578;2023-03-21T07:59:44;101460.44;;;9.64;100.00
69153;BME280;56261;51.580;4.578;2023-03-21T08:02:16;101455.69;;;9.68;100.00
69153;BME280;56261;51.580;4.578;2023-03-21T08:04:42;101451.50;;;9.65;100.00
69153;BME280;56261;51.580;4.578;2023-03-21T08:07:09;101454.69;;;9.69;100.00
69153;BME280;56261;51.580;4.578;2023-03-21T08:09:34;101450.50;;;9.66;100.00
69153;BME280;56261;51.580;4.578;2023-03-21T08:12:01;101438.19;;;9.65;100.00
69153;BME280;56261;51.580;4.578;2023-03-21T08:14:27;101462.53;;;9.70;100.00
69153;BME280;56261;51.580;4.578;2023-03-21T08:16:52;101448.06;;;9.73;100.00
69153;BME280;56261;51.580;4.578;2023-03-21T08:19:17;101454.34;;;9.82;100.00
69153;BME280;56261;51.580;4.578;2023-03-21T08:21:48;101451.53;;;9.83;100.00
69153;BME280;56261;51.580;4.578;2023-03-21T08:24:14;101444.22;;;9.85;100.00
69153;BME280;56261;51.580;4.578;2023-03-21T08:26:40;101450.16;;;9.79;100.00
69153;BME280;56261;51.580;4.578;2023-03-21T08:29:06;101445.38;;;9.83;100.00
69153;BME280;56261;51.580;4.578;2023-03-21T08:31:31;101444.69;;;9.98;100.00
69153;BME280;56261;51.580;4.578;2023-03-21T08:33:57;101436.72;;;9.98;100.00
69153;BME280;56261;51.580;4.578;2023-03-21T08:36:22;101438.69;;;9.96;100.00
69153;BME280;56261;51.580;4.578;2023-03-21T08:38:48;101429.69;;;9.97;100.00
69153;BME280;56261;51.580;4.578;2023-03-21T08:41:18;101425.03;;;10.00;100.00
69153;BME280;56261;51.580;4.578;2023-03-21T08:43:46;101427.13;;;10.24;100.00
69153;BME280;56261;51.580;4.578;2023-03-21T08:46:12;101412.03;;;10.14;100.00
69153;BME280;56261;51.580;4.578;2023-03-21T08:48:37;101430.41;;;10.35;100.00
69153;BME280;56261;51.580;4.578;2023-03-21T08:51:03;101428.59;;;10.36;100.00
69153;BME280;56261;51.580;4.578;2023-03-21T08:53:28;101417.97;;;10.44;100.00
69153;BME280;56261;51.580;4.578;2023-03-21T08:55:54;101417.47;;;10.41;100.00
69153;BME280;56261;51.580;4.578;2023-03-21T08:58:19;101408.31;;;10.43;100.00
69153;BME280;56261;51.580;4.578;2023-03-21T09:00:45;101410.56;;;10.56;100.00
69153;BME280;56261;51.580;4.578;2023-03-21T09:03:10;101409.03;;;10.53;100.00
69153;BME280;56261;51.580;4.578;2023-03-21T09:05:36;101406.00;;;10.48;100.00
69153;BME280;56261;51.580;4.578;2023-03-21T09:08:02;101410.47;;;10.66;100.00
69153;BME280;56261;51.580;4.578;2023-03-21T09:10:30;101412.34;;;10.73;100.00
69153;BME280;56261;51.580;4.578;2023-03-21T09:12:55;101396.25;;;10.83;100.00
69153;BME280;56261;51.580;4.578;2023-03-21T09:15:26;101404.28;;;10.91;100.00
69153;BME280;56261;51.580;4.578;2023-03-21T09:17:53;101394.63;;;10.90;100.00
69153;BME280;56261;51.580;4.578;2023-03-21T09:20:22;101401.75;;;11.16;100.00
69153;BME280;56261;51.580;4.578;2023-03-21T09:22:54;101409.97;;;11.22;100.00
69153;BME280;56261;51.580;4.578;2023-03-21T09:25:21;101400.53;;;11.36;100.00
69153;BME280;56261;51.580;4.578;2023-03-21T09:27:48;101392.84;;;11.41;100.00
69153;BME280;56261;51.580;4.578;2023-03-21T09:30:17;101397.13;;;11.26;100.00
69153;BME280;56261;51.580;4.578;2023-03-21T09:32:43;101398.06;;;11.51;100.00
69153;BME280;56261;51.580;4.578;2023-03-21T09:35:12;101395.09;;;11.62;100.00
69153;BME280;56261;51.580;4.578;2023-03-21T09:37:40;101393.25;;;11.63;100.00
69153;BME280;56261;51.580;4.578;2023-03-21T09:40:22;101386.09;;;11.72;100.00
69153;BME280;56261;51.580;4.578;2023-03-21T09:48:18;101386.25;;;11.62;100.00
69153;BME280;56261;51.580;4.578;2023-03-21T09:50:55;101381.09;;;11.69;100.00
69153;BME280;56261;51.580;4.578;2023-03-21T09:53:26;101377.72;;;11.67;100.00
69153;BME280;56261;51.580;4.578;2023-03-21T09:55:55;101383.59;;;11.78;100.00
69153;BME280;56261;51.580;4.578;2023-03-21T09:58:26;101389.03;;;11.95;100.00
69153;BME280;56261;51.580;4.578;2023-03-21T10:01:05;101380.13;;;11.94;100.00
69153;BME280;56261;51.580;4.578;2023-03-21T10:03:35;101394.19;;;12.21;100.00
69153;BME280;56261;51.580;4.578;2023-03-21T10:06:10;101386.69;;;12.24;100.00
69153;BME280;56261;51.580;4.578;2023-03-21T10:08:42;101379.69;;;12.23;100.00
69153;BME280;56261;51.580;4.578;2023-03-21T10:11:22;101381.16;;;12.34;100.00
69153;BME280;56261;51.580;4.578;2023-03-21T10:18:54;101379.00;;;12.38;100.00
69153;BME280;56261;51.580;4.578;2023-03-21T10:21:22;101391.03;;;12.42;100.00
69153;BME280;56261;51.580;4.578;2023-03-21T10:23:49;101407.41;;;12.14;100.00
69153;BME280;56261;51.580;4.578;2023-03-21T10:26:18;101394.03;;;12.06;100.00
69153;BME280;56261;51.580;4.578;2023-03-21T10:28:45;101409.25;;;12.22;100.00
69153;BME280;56261;51.580;4.578;2023-03-21T10:31:15;101396.19;;;12.43;100.00
69153;BME280;56261;51.580;4.578;2023-03-21T10:33:43;101378.50;;;12.18;100.00
69153;BME280;56261;51.580;4.578;2023-03-21T10:36:14;101381.47;;;12.56;100.00
69153;BME280;56261;51.580;4.578;2023-03-21T10:38:54;101370.78;;;12.48;100.00
69153;BME280;56261;51.580;4.578;2023-03-21T10:41:20;101374.31;;;12.48;100.00
69153;BME280;56261;51.580;4.578;2023-03-21T10:43:46;101351.22;;;12.55;100.00
69153;BME280;56261;51.580;4.578;2023-03-21T10:46:28;101362.31;;;13.00;100.00
69153;BME280;56261;51.580;4.578;2023-03-21T10:48:53;101369.59;;;12.66;100.00
69153;BME280;56261;51.580;4.578;2023-03-21T10:51:21;101371.13;;;12.36;100.00
69153;BME280;56261;51.580;4.578;2023-03-21T10:53:56;101360.94;;;12.40;100.00
69153;BME280;56261;51.580;4.578;2023-03-21T10:56:28;101370.81;;;12.31;100.00
69153;BME280;56261;51.580;4.578;2023-03-21T10:58:57;101375.31;;;12.55;100.00
69153;BME280;56261;51.580;4.578;2023-03-21T11:01:35;101371.81;;;12.46;100.00
69153;BME280;56261;51.580;4.578;2023-03-21T11:04:21;101371.28;;;12.43;100.00
69153;BME280;56261;51.580;4.578;2023-03-21T11:06:59;101377.00;;;12.48;100.00
69153;BME280;56261;51.580;4.578;2023-03-21T11:09:53;101382.00;;;12.51;100.00
69153;BME280;56261;51.580;4.578;2023-03-21T11:12:31;101386.84;;;12.56;100.00
69153;BME280;56261;51.580;4.578;2023-03-21T11:15:27;101391.00;;;12.66;100.00
69153;BME280;56261;51.580;4.578;2023-03-21T11:17:53;101384.31;;;12.54;100.00
69153;BME280;56261;51.580;4.578;2023-03-21T11:20:20;101394.88;;;12.64;100.00
69153;BME280;56261;51.580;4.578;2023-03-21T11:22:47;101368.31;;;12.21;100.00
69153;BME280;56261;51.580;4.578;2023-03-21T11:25:26;101372.31;;;12.34;100.00
69153;BME280;56261;51.580;4.578;2023-03-21T11:27:56;101357.72;;;12.69;100.00
69153;BME280;56261;51.580;4.578;2023-03-21T11:30:24;101350.34;;;12.63;100.00
69153;BME280;56261;51.580;4.578;2023-03-21T11:32:55;101368.47;;;12.44;100.00
69153;BME280;56261;51.580;4.578;2023-03-21T11:35:24;101374.78;;;12.60;100.00
69153;BME280;56261;51.580;4.578;2023-03-21T11:37:54;101376.97;;;12.56;100.00
69153;BME280;56261;51.580;4.578;2023-03-21T11:40:22;101375.66;;;12.44;100.00
69153;BME280;56261;51.580;4.578;2023-03-21T11:42:50;101381.00;;;12.44;100.00
69153;BME280;56261;51.580;4.578;2023-03-21T11:45:25;101374.31;;;12.40;100.00
69153;BME280;56261;51.580;4.578;2023-03-21T11:47:56;101368.81;;;12.33;100.00
69153;BME280;56261;51.580;4.578;2023-03-21T11:58:38;101355.28;;;12.99;100.00
69153;BME280;56261;51.580;4.578;2023-03-21T12:06:25;101334.09;;;13.28;100.00
69153;BME280;56261;51.580;4.578;2023-03-21T12:11:51;101349.53;;;13.10;100.00
69153;BME280;56261;51.580;4.578;2023-03-21T12:14:32;101331.69;;;12.94;100.00
69153;BME280;56261;51.580;4.578;2023-03-21T12:20:06;101324.84;;;13.62;100.00
69153;BME280;56261;51.580;4.578;2023-03-21T12:22:49;101326.84;;;13.37;100.00
69153;BME280;56261;51.580;4.578;2023-03-21T12:25:26;101335.22;;;13.26;100.00
69153;BME280;56261;51.580;4.578;2023-03-21T12:34:05;101329.88;;;13.26;100.00
69153;BME280;56261;51.580;4.578;2023-03-21T12:39:39;101316.84;;;13.23;100.00
69153;BME280;56261;51.580;4.578;2023-03-21T12:45:19;101302.94;;;13.59;100.00
69153;BME280;56261;51.580;4.578;2023-03-21T12:47:51;101292.63;;;13.47;100.00
69153;BME280;56261;51.580;4.578;2023-03-21T12:50:25;101297.00;;;13.09;100.00
69153;BME280;56261;51.580;4.578;2023-03-21T12:52:56;101303.69;;;13.13;100.00
69153;BME280;56261;51.580;4.578;2023-03-21T12:55:31;101302.78;;;13.21;100.00
69153;BME280;56261;51.580;4.578;2023-03-21T12:58:08;101291.84;;;13.39;100.00
69153;BME280;56261;51.580;4.578;2023-03-21T13:00:46;101290.31;;;13.44;100.00
69153;BME280;56261;51.580;4.578;2023-03-21T13:03:16;101287.88;;;13.58;100.00
69153;BME280;56261;51.580;4.578;2023-03-21T13:05:47;101290.59;;;13.49;100.00
69153;BME280;56261;51.580;4.578;2023-03-21T13:08:38;101288.94;;;13.48;100.00
69153;BME280;56261;51.580;4.578;2023-03-21T13:11:06;101281.66;;;13.57;100.00
69153;BME280;56261;51.580;4.578;2023-03-21T13:13:42;101274.72;;;13.71;100.00
69153;BME280;56261;51.580;4.578;2023-03-21T13:16:12;101274.34;;;13.74;100.00
69153;BME280;56261;51.580;4.578;2023-03-21T13:19:05;101276.94;;;13.59;100.00
69153;BME280;56261;51.580;4.578;2023-03-21T13:21:51;101273.44;;;13.59;100.00
69153;BME280;56261;51.580;4.578;2023-03-21T13:27:06;101254.25;;;13.70;100.00
69153;BME280;56261;51.580;4.578;2023-03-21T13:32:48;101278.72;;;13.44;100.00
69153;BME280;56261;51.580;4.578;2023-03-21T13:37:52;101274.47;;;13.26;100.00
69153;BME280;56261;51.580;4.578;2023-03-21T14:11:06;101260.69;;;13.06;100.00
69153;BME280;56261;51.580;4.578;2023-03-21T14:13:34;101252.94;;;12.80;100.00
69153;BME280;56261;51.580;4.578;2023-03-21T14:16:07;101252.91;;;12.88;100.00
69153;BME280;56261;51.580;4.578;2023-03-21T14:18:46;101253.44;;;12.84;100.00
69153;BME280;56261;51.580;4.578;2023-03-21T14:21:27;101250.44;;;12.79;100.00
69153;BME280;56261;51.580;4.578;2023-03-21T14:24:05;101243.69;;;12.91;100.00
69153;BME280;56261;51.580;4.578;2023-03-21T14:26:52;101252.94;;;12.80;100.00
69153;BME280;56261;51.580;4.578;2023-03-21T14:29:32;101249.34;;;12.96;100.00
69153;BME280;56261;51.580;4.578;2023-03-21T14:32:00;101244.66;;;12.98;100.00
69153;BME280;56261;51.580;4.578;2023-03-21T14:34:31;101251.25;;;12.87;100.00
69153;BME280;56261;51.580;4.578;2023-03-21T14:36:58;101249.00;;;12.99;100.00
69153;BME280;56261;51.580;4.578;2023-03-21T14:39:31;101245.19;;;12.94;100.00
69153;BME280;56261;51.580;4.578;2023-03-21T14:42:15;101256.16;;;12.67;100.00
69153;BME280;56261;51.580;4.578;2023-03-21T14:44:47;101259.69;;;12.68;100.00
69153;BME280;56261;51.580;4.578;2023-03-21T14:49:43;101249.31;;;12.73;100.00
69153;BME280;56261;51.580;4.578;2023-03-21T14:52:22;101250.28;;;12.80;100.00
69153;BME280;56261;51.580;4.578;2023-03-21T14:54:48;101240.84;;;12.93;100.00
69153;BME280;56261;51.580;4.578;2023-03-21T14:57:18;101241.06;;;12.83;100.00
69153;BME280;56261;51.580;4.578;2023-03-21T14:59:47;101234.25;;;12.72;100.00